createdAt,value
2022-08-12T00:00:32.654Z,18.80
2022-08-12T00:03:03.202Z,20.40
2022-08-12T00:05:35.199Z,17.80
2022-08-12T00:08:05.557Z,17.80
2022-08-12T00:10:36.278Z,18.20
2022-08-12T00:13:07.370Z,19.60
2022-08-12T00:15:42.771Z,19.20
2022-08-12T00:18:13.099Z,20.00
2022-08-12T00:20:44.004Z,20.60
2022-08-12T00:23:14.439Z,17.40
2022-08-12T00:25:51.203Z,19.40
2022-08-12T00:28:19.865Z,20.20
2022-08-12T00:30:50.337Z,21.00
2022-08-12T00:33:23.018Z,19.40
2022-08-12T00:35:56.719Z,17.20
2022-08-12T00:38:28.143Z,20.40
2022-08-12T00:41:00.266Z,19.00
2022-08-12T00:43:30.750Z,21.40
2022-08-12T00:46:01.184Z,20.60
2022-08-12T00:48:32.739Z,20.20
2022-08-12T00:51:06.518Z,21.40
2022-08-12T00:53:37.943Z,23.00
2022-08-12T00:56:09.126Z,21.40
2022-08-12T00:58:41.655Z,21.00
2022-08-12T01:01:14.621Z,21.60
2022-08-12T01:03:47.997Z,20.40
2022-08-12T01:06:20.141Z,22.20
2022-08-12T01:08:50.409Z,21.20
2022-08-12T01:11:21.183Z,20.80
2022-08-12T01:13:52.607Z,22.00
2022-08-12T01:16:23.029Z,21.40
2022-08-12T01:18:55.873Z,21.40
2022-08-12T01:21:29.150Z,21.20
2022-08-12T01:24:28.208Z,22.00
2022-08-12T01:26:57.088Z,20.40
2022-08-12T01:29:33.558Z,20.40
2022-08-12T01:32:27.548Z,21.00
2022-08-12T01:35:34.065Z,20.20
2022-08-12T01:38:07.400Z,22.40
2022-08-12T01:40:42.507Z,22.20
2022-08-12T01:43:14.230Z,20.40
2022-08-12T01:46:05.092Z,20.40
2022-08-12T01:48:57.896Z,21.40
2022-08-12T01:52:21.871Z,20.80
2022-08-12T01:54:31.970Z,21.40
2022-08-12T01:57:58.108Z,22.40
2022-08-12T02:00:06.918Z,21.40
2022-08-12T02:02:43.102Z,21.40
2022-08-12T02:05:22.223Z,20.40
2022-08-12T02:07:57.948Z,21.00
2022-08-12T02:13:49.229Z,20.40
2022-08-12T02:16:43.453Z,20.40
2022-08-12T02:19:49.581Z,20.60
2022-08-12T02:22:52.073Z,21.80
2022-08-12T02:25:27.900Z,21.40
2022-08-12T02:27:58.353Z,22.20
2022-08-12T02:30:35.364Z,20.60
2022-08-12T02:33:05.926Z,20.60
2022-08-12T02:35:38.531Z,21.20
2022-08-12T02:38:29.501Z,22.00
2022-08-12T02:43:58.689Z,21.40
2022-08-12T02:46:34.132Z,22.00
2022-08-12T02:49:07.593Z,22.60
2022-08-12T02:51:43.800Z,21.40
2022-08-12T02:54:14.079Z,21.80
2022-08-12T02:56:50.441Z,21.40
2022-08-12T02:59:19.210Z,21.40
2022-08-12T03:01:54.710Z,26.50
2022-08-12T03:04:27.898Z,22.00
2022-08-12T03:07:21.648Z,20.20
2022-08-12T03:10:15.858Z,21.00
2022-08-12T03:12:50.932Z,19.60
2022-08-12T03:15:23.122Z,20.20
2022-08-12T03:18:24.787Z,21.20
2022-08-12T03:20:37.386Z,22.40
2022-08-12T03:23:10.376Z,22.20
2022-08-12T03:25:43.768Z,22.20
2022-08-12T03:28:23.638Z,20.80
2022-08-12T03:30:48.349Z,18.60
2022-08-12T03:33:20.965Z,22.20
2022-08-12T03:35:55.706Z,22.40
2022-08-12T03:38:29.014Z,21.00
2022-08-12T03:41:02.217Z,21.60
2022-08-12T03:43:36.142Z,22.80
2022-08-12T03:46:11.821Z,22.20
2022-08-12T03:48:42.420Z,22.80
2022-08-12T03:51:13.175Z,24.40
2022-08-12T03:53:47.454Z,23.80
2022-08-12T03:56:20.287Z,24.00
2022-08-12T03:58:52.089Z,25.00
2022-08-12T04:01:22.650Z,25.80
2022-08-12T04:03:54.166Z,22.80
2022-08-12T04:06:35.006Z,22.00
2022-08-12T04:08:59.852Z,26.00
2022-08-12T04:11:32.281Z,22.60
2022-08-12T04:16:52.580Z,21.80
2022-08-12T04:19:22.904Z,21.60
2022-08-12T04:22:01.262Z,23.80
2022-08-12T04:24:31.505Z,22.80
2022-08-12T04:27:02.190Z,24.20
2022-08-12T04:30:21.368Z,23.00
2022-08-12T04:32:06.709Z,23.40
2022-08-12T04:34:38.436Z,27.00
2022-08-12T04:37:08.756Z,26.20
2022-08-12T04:39:40.375Z,27.00
2022-08-12T04:42:11.043Z,26.75
2022-08-12T04:44:41.626Z,25.60
2022-08-12T04:47:32.952Z,25.75
2022-08-12T04:50:03.893Z,26.25
2022-08-12T04:52:36.063Z,23.80
2022-08-12T04:55:08.398Z,25.80
2022-08-12T04:57:39.540Z,24.40
2022-08-12T05:00:12.824Z,23.00
2022-08-12T05:02:43.827Z,24.40
2022-08-12T05:05:20.223Z,26.00
2022-08-12T05:07:54.443Z,23.20
2022-08-12T05:10:33.871Z,24.80
2022-08-12T05:12:59.781Z,25.00
2022-08-12T05:15:30.892Z,26.00
2022-08-12T05:18:02.091Z,26.00
2022-08-12T05:20:33.229Z,25.00
2022-08-12T05:23:26.912Z,26.00
2022-08-12T05:25:57.482Z,26.50
2022-08-12T05:28:29.249Z,25.75
2022-08-12T05:30:59.786Z,22.75
2022-08-12T05:33:32.243Z,26.50
2022-08-12T05:36:02.538Z,24.00
2022-08-12T05:38:32.843Z,17.25
2022-08-12T05:41:05.656Z,26.60
2022-08-12T05:43:36.782Z,26.00
2022-08-12T05:46:07.213Z,27.00
2022-08-12T05:48:39.978Z,26.50
2022-08-12T05:51:11.363Z,26.60
2022-08-12T05:53:42.296Z,26.00
2022-08-12T05:56:24.818Z,26.00
2022-08-12T05:58:56.734Z,26.00
2022-08-12T06:02:10.005Z,27.50
2022-08-12T06:04:02.462Z,26.25
2022-08-12T06:06:36.584Z,25.25
2022-08-12T06:09:06.181Z,26.75
2022-08-12T06:11:37.824Z,25.20
2022-08-12T06:14:12.007Z,25.00
2022-08-12T06:16:42.405Z,25.60
2022-08-12T06:19:12.802Z,24.60
2022-08-12T06:21:43.207Z,24.00
2022-08-12T06:24:13.871Z,25.00
2022-08-12T06:26:44.204Z,24.80
2022-08-12T06:29:14.479Z,25.00
2022-08-12T06:31:47.595Z,25.80
2022-08-12T06:35:23.332Z,24.20
2022-08-12T06:36:50.748Z,24.00
2022-08-12T06:39:21.055Z,25.00
2022-08-12T06:42:02.510Z,24.80
2022-08-12T06:44:23.442Z,25.40
2022-08-12T06:46:58.345Z,24.20
2022-08-12T06:49:29.412Z,22.20
2022-08-12T06:51:59.852Z,23.40
2022-08-12T06:54:32.066Z,17.80
2022-08-12T06:57:58.099Z,20.80
2022-08-12T06:59:35.107Z,21.20
2022-08-12T07:02:06.126Z,20.80
2022-08-12T07:04:37.784Z,18.40
2022-08-12T07:07:10.488Z,20.40
2022-08-12T07:10:03.905Z,20.00
2022-08-12T07:12:14.536Z,21.00
2022-08-12T07:14:48.932Z,18.80
2022-08-12T07:17:18.908Z,20.60
2022-08-12T07:19:49.171Z,20.80
2022-08-12T07:22:19.521Z,19.20
2022-08-12T07:24:50.033Z,18.40
2022-08-12T07:27:20.206Z,17.20
2022-08-12T07:29:57.791Z,17.80
2022-08-12T07:32:23.535Z,18.80
2022-08-12T07:34:53.977Z,18.40
2022-08-12T07:37:24.387Z,20.40
2022-08-12T07:39:59.920Z,19.20
2022-08-12T07:42:26.954Z,18.60
2022-08-12T07:44:57.249Z,16.60
2022-08-12T07:47:27.611Z,17.60
2022-08-12T07:50:05.745Z,19.80
2022-08-12T07:52:33.243Z,18.80
2022-08-12T07:55:04.317Z,18.20
2022-08-12T07:57:35.780Z,21.00
2022-08-12T08:00:07.056Z,21.80
2022-08-12T08:02:37.646Z,20.40
2022-08-12T08:05:08.778Z,21.20
2022-08-12T08:07:39.228Z,22.40
2022-08-12T08:10:10.398Z,24.00
2022-08-12T08:12:43.351Z,21.60
2022-08-12T08:15:14.215Z,24.00
2022-08-12T08:18:05.487Z,25.00
2022-08-12T08:20:39.451Z,23.80
2022-08-12T08:23:12.777Z,23.40
2022-08-12T08:25:44.073Z,22.80
2022-08-12T08:28:17.520Z,23.80
2022-08-12T08:30:49.596Z,22.20
2022-08-12T08:33:23.465Z,21.40
2022-08-12T08:35:54.276Z,23.00
2022-08-12T08:38:33.253Z,18.00
2022-08-12T08:40:56.382Z,20.60
2022-08-12T08:43:27.574Z,20.80
2022-08-12T08:46:00.552Z,21.40
2022-08-12T08:48:31.828Z,21.20
2022-08-12T08:51:05.061Z,21.40
2022-08-12T08:53:35.162Z,21.40
2022-08-12T08:56:05.938Z,20.60
2022-08-12T08:58:36.452Z,22.40
2022-08-12T09:01:07.359Z,21.60
2022-08-12T09:05:09.367Z,21.00
2022-08-12T09:06:09.825Z,21.20
2022-08-12T09:08:44.003Z,20.40
2022-08-12T09:12:06.517Z,19.20
2022-08-12T09:14:12.434Z,18.00
2022-08-12T09:16:20.907Z,18.20
2022-08-12T09:18:53.216Z,19.20
2022-08-12T09:21:23.736Z,19.20
2022-08-12T09:24:01.255Z,17.60
2022-08-12T09:26:28.432Z,17.80
2022-08-12T09:29:00.397Z,22.80
2022-08-12T09:32:03.301Z,13.80
2022-08-12T09:34:26.772Z,17.60
2022-08-12T09:36:58.147Z,17.60
2022-08-12T09:40:00.399Z,16.40
2022-08-12T09:42:33.583Z,16.00
2022-08-12T09:44:37.973Z,16.40
2022-08-12T09:46:48.242Z,13.60
2022-08-12T09:49:18.810Z,13.80
2022-08-12T09:51:51.219Z,13.20
2022-08-12T09:54:33.105Z,13.00
2022-08-12T09:57:01.040Z,16.20
2022-08-12T10:00:16.571Z,12.60
2022-08-12T10:02:45.732Z,11.20
2022-08-12T10:04:30.061Z,12.80
2022-08-12T10:07:00.803Z,13.80
2022-08-12T10:09:57.872Z,12.40
2022-08-12T10:12:10.174Z,12.20
2022-08-12T10:14:36.638Z,13.60
2022-08-12T10:17:10.227Z,14.60
2022-08-12T10:19:42.264Z,13.80
2022-08-12T10:22:17.098Z,13.20
2022-08-12T10:24:53.243Z,14.40
2022-08-12T10:27:21.247Z,16.00
2022-08-12T10:30:03.963Z,16.80
2022-08-12T10:32:44.944Z,15.20
2022-08-12T10:34:57.871Z,12.40
2022-08-12T10:38:33.538Z,14.40
2022-08-12T10:40:09.520Z,17.60
2022-08-12T10:42:35.218Z,15.40
2022-08-12T10:45:07.720Z,14.80
2022-08-12T10:48:07.011Z,15.00
2022-08-12T10:50:28.378Z,17.20
2022-08-12T10:52:46.240Z,17.80
2022-08-12T10:55:18.153Z,17.20
2022-08-12T10:58:13.545Z,19.60
2022-08-12T11:00:33.665Z,19.40
2022-08-12T11:04:18.133Z,17.20
2022-08-12T11:07:08.365Z,17.20
2022-08-12T11:08:34.548Z,18.60
2022-08-12T11:10:29.087Z,19.40
2022-08-12T11:13:00.662Z,19.60
2022-08-12T11:16:02.406Z,19.40
2022-08-12T11:18:03.641Z,19.80
2022-08-12T11:20:46.583Z,20.20
2022-08-12T11:23:25.994Z,20.20
2022-08-12T11:25:57.884Z,19.00
2022-08-12T11:28:33.184Z,18.40
2022-08-12T11:34:52.523Z,19.00
2022-08-12T11:42:32.570Z,21.20
2022-08-12T11:45:01.624Z,20.60
2022-08-12T11:47:32.445Z,20.20
2022-08-12T11:50:02.841Z,21.40
2022-08-12T11:52:55.130Z,18.40
2022-08-12T11:55:06.134Z,19.00
2022-08-12T11:58:07.368Z,21.00
2022-08-12T12:02:01.792Z,18.20
2022-08-12T12:02:49.455Z,19.20
2022-08-12T12:05:19.993Z,19.60
2022-08-12T12:08:37.945Z,21.20
2022-08-12T12:10:25.400Z,20.80
2022-08-12T12:12:57.136Z,19.60
2022-08-12T12:15:40.793Z,22.20
2022-08-12T12:18:00.177Z,22.40
2022-08-12T12:20:30.667Z,19.00
2022-08-12T12:23:01.068Z,19.80
2022-08-12T12:26:07.578Z,19.00
2022-08-12T12:28:37.760Z,20.80
2022-08-12T12:30:57.333Z,19.60
2022-08-12T12:33:58.138Z,19.20
2022-08-12T12:36:30.172Z,18.40
2022-08-12T12:39:00.074Z,19.00
2022-08-12T12:41:48.210Z,19.00
2022-08-12T12:44:04.120Z,18.40
2022-08-12T12:46:35.100Z,18.40
2022-08-12T12:49:06.909Z,18.40
2022-08-12T12:51:48.807Z,18.20
2022-08-12T12:54:10.257Z,18.60
2022-08-12T12:56:43.299Z,17.80
2022-08-12T12:59:55.078Z,17.40
2022-08-12T13:01:45.672Z,18.80
2022-08-12T13:04:17.731Z,18.40
2022-08-12T13:06:48.473Z,18.20
2022-08-12T13:09:22.806Z,18.20
2022-08-12T13:11:53.501Z,17.20
2022-08-12T13:14:27.889Z,19.20
2022-08-12T13:16:57.476Z,19.40
2022-08-12T13:19:37.880Z,17.00
2022-08-12T13:22:00.788Z,19.60
2022-08-12T13:24:32.847Z,19.20
2022-08-12T13:27:03.246Z,18.80
2022-08-12T13:29:34.052Z,18.40
2022-08-12T13:32:19.491Z,18.40
2022-08-12T13:34:37.110Z,19.40
2022-08-12T13:37:09.958Z,17.00
2022-08-12T13:39:40.018Z,18.60
2022-08-12T13:42:14.605Z,16.00
2022-08-12T13:44:43.275Z,17.60
2022-08-12T13:47:18.861Z,16.60
2022-08-12T13:49:55.439Z,15.40
2022-08-12T13:52:20.173Z,17.00
2022-08-12T13:54:54.186Z,16.80
2022-08-12T13:57:22.849Z,16.40
2022-08-12T13:59:55.595Z,15.20
2022-08-12T14:02:26.907Z,16.20
2022-08-12T14:04:57.264Z,16.40
2022-08-12T14:07:27.708Z,9.80
2022-08-12T14:09:58.793Z,14.60
2022-08-12T14:12:29.265Z,14.40
2022-08-12T14:14:59.618Z,13.80
2022-08-12T14:17:31.534Z,14.60
2022-08-12T14:20:04.021Z,13.80
2022-08-12T14:22:34.424Z,13.80
2022-08-12T14:25:06.773Z,13.20
2022-08-12T14:28:04.185Z,15.60
2022-08-12T14:30:15.277Z,15.40
2022-08-12T14:32:43.488Z,15.00
2022-08-12T14:35:15.633Z,14.80
2022-08-12T14:37:58.008Z,14.80
2022-08-12T14:40:25.957Z,15.20
2022-08-12T14:42:51.691Z,13.00
2022-08-12T14:45:22.963Z,10.80
2022-08-12T14:47:58.560Z,14.80
2022-08-12T14:50:37.431Z,15.20
2022-08-12T14:55:24.650Z,14.80
2022-08-12T14:58:03.095Z,16.80
2022-08-12T15:00:33.899Z,15.20
2022-08-12T15:03:06.405Z,16.80
2022-08-12T15:06:05.005Z,16.40
2022-08-12T15:08:12.558Z,13.20
2022-08-12T15:10:46.221Z,15.80
2022-08-12T15:13:20.046Z,14.40
2022-08-12T15:15:52.671Z,16.20
2022-08-12T15:18:24.398Z,15.40
2022-08-12T15:20:56.654Z,14.00
2022-08-12T15:23:33.148Z,17.20
2022-08-12T15:26:04.730Z,16.60
2022-08-12T15:28:41.362Z,17.60
2022-08-12T15:31:27.382Z,18.40
2022-08-12T15:33:52.769Z,18.00
2022-08-12T15:36:36.511Z,17.60
2022-08-12T15:38:55.708Z,15.80
2022-08-12T15:41:26.716Z,16.80
2022-08-12T15:44:37.407Z,14.80
2022-08-12T15:46:41.142Z,17.80
2022-08-12T15:49:17.185Z,17.80
2022-08-12T15:52:05.434Z,16.60
2022-08-12T15:54:40.999Z,17.20
2022-08-12T15:57:10.702Z,15.80
2022-08-12T16:00:00.251Z,17.20
2022-08-12T16:02:14.450Z,16.60
2022-08-12T16:04:48.144Z,16.60
2022-08-12T16:07:20.449Z,12.20
2022-08-12T16:10:04.859Z,12.00
2022-08-12T16:12:27.315Z,18.20
2022-08-12T16:14:58.711Z,14.60
2022-08-12T16:18:14.877Z,13.20
2022-08-12T16:20:03.122Z,13.00
2022-08-12T16:22:35.417Z,14.20
2022-08-12T16:25:07.730Z,13.80
2022-08-12T16:27:38.360Z,11.00
2022-08-12T16:30:11.488Z,12.20
2022-08-12T16:32:41.952Z,12.00
2022-08-12T16:35:16.187Z,11.80
2022-08-12T16:38:27.680Z,11.60
2022-08-12T16:40:28.228Z,11.20
2022-08-12T16:43:02.260Z,6.00
2022-08-12T16:45:32.091Z,8.20
2022-08-12T16:48:04.208Z,9.60
2022-08-12T16:50:35.615Z,9.40
2022-08-12T16:53:09.672Z,10.00
2022-08-12T16:55:42.399Z,8.00
2022-08-12T16:58:13.488Z,9.00
2022-08-12T17:00:48.417Z,13.60
2022-08-12T17:03:28.565Z,15.80
2022-08-12T17:06:00.665Z,7.60
2022-08-12T17:08:37.660Z,20.20
2022-08-12T17:11:12.075Z,8.60
2022-08-12T17:13:53.681Z,8.80
2022-08-12T17:16:18.154Z,5.80
2022-08-12T17:18:57.442Z,8.40
2022-08-12T17:21:41.487Z,7.60
2022-08-12T17:23:55.259Z,11.00
2022-08-12T17:26:30.830Z,8.80
2022-08-12T17:29:01.080Z,10.00
2022-08-12T17:34:51.248Z,9.80
2022-08-12T17:37:16.874Z,8.80
2022-08-12T17:40:12.667Z,8.60
2022-08-12T17:42:32.768Z,9.00
2022-08-12T17:44:55.031Z,9.80
2022-08-12T17:47:31.118Z,7.00
2022-08-12T17:50:03.552Z,8.80
2022-08-12T17:52:33.369Z,11.00
2022-08-12T17:55:40.805Z,7.60
2022-08-12T17:57:41.733Z,8.20
2022-08-12T18:00:12.865Z,7.80
2022-08-12T18:04:05.855Z,9.80
2022-08-12T18:06:01.575Z,8.80
2022-08-12T18:08:54.502Z,7.40
2022-08-12T18:12:03.747Z,9.40
2022-08-12T18:14:15.971Z,5.80
2022-08-12T18:16:48.328Z,9.20
2022-08-12T18:19:19.582Z,8.20
2022-08-12T18:22:01.847Z,9.00
2022-08-12T18:24:25.092Z,9.80
2022-08-12T18:26:56.339Z,10.40
2022-08-12T18:29:41.850Z,10.60
2022-08-12T18:32:17.954Z,10.80
2022-08-12T18:34:38.784Z,9.40
2022-08-12T18:37:40.977Z,13.40
2022-08-12T18:39:45.825Z,11.20
2022-08-12T18:42:20.679Z,13.40
2022-08-12T18:45:00.977Z,15.60
2022-08-12T18:47:50.185Z,13.60
2022-08-12T18:50:14.144Z,14.40
2022-08-12T18:52:48.430Z,11.40
2022-08-12T18:55:17.967Z,14.20
2022-08-12T18:58:08.131Z,13.00
2022-08-12T19:00:22.667Z,12.00
2022-08-12T19:02:54.942Z,12.20
2022-08-12T19:05:53.827Z,13.20
2022-08-12T19:08:00.833Z,11.00
2022-08-12T19:10:34.969Z,10.80
2022-08-12T19:13:08.136Z,12.20
2022-08-12T19:16:01.343Z,11.60
2022-08-12T19:18:32.952Z,10.00
2022-08-12T19:21:06.276Z,10.80
2022-08-12T19:23:36.408Z,10.40
2022-08-12T19:26:10.708Z,13.00
2022-08-12T19:28:42.683Z,11.00
2022-08-12T19:31:21.476Z,9.60
2022-08-12T19:34:25.583Z,11.00
2022-08-12T19:36:25.875Z,10.20
2022-08-12T19:39:00.410Z,11.60
2022-08-12T19:41:42.469Z,11.20
2022-08-12T19:44:18.656Z,10.20
2022-08-12T19:46:37.866Z,5.60
2022-08-12T19:49:15.010Z,10.60
2022-08-12T19:51:46.937Z,9.60
2022-08-12T19:54:19.691Z,13.00
2022-08-12T19:56:54.426Z,12.40
2022-08-12T19:59:43.272Z,12.80
2022-08-12T20:02:03.408Z,11.20
2022-08-12T20:04:35.487Z,12.00
2022-08-12T20:07:08.621Z,11.00
2022-08-12T20:09:42.805Z,11.00
2022-08-12T20:12:22.634Z,12.20
2022-08-12T20:14:50.687Z,11.80
2022-08-12T20:17:23.482Z,13.00
2022-08-12T20:20:16.583Z,14.00
2022-08-12T20:22:31.482Z,11.00
2022-08-12T20:25:03.811Z,13.20
2022-08-12T20:28:04.884Z,13.00
2022-08-12T20:30:07.284Z,13.20
2022-08-12T20:32:47.551Z,14.00
2022-08-12T20:35:10.603Z,12.60
2022-08-12T20:38:07.026Z,11.00
2022-08-12T20:40:14.740Z,13.60
2022-08-12T20:42:46.730Z,10.00
2022-08-12T20:45:18.744Z,10.40
2022-08-12T20:48:02.016Z,13.60
2022-08-12T20:50:22.808Z,13.00
2022-08-12T20:52:55.192Z,11.80
2022-08-12T20:55:42.549Z,10.40
2022-08-12T20:58:03.168Z,12.80
2022-08-12T21:00:30.324Z,12.00
2022-08-12T21:03:00.850Z,13.00
2022-08-12T21:06:12.116Z,12.60
2022-08-12T21:08:24.411Z,9.80
2022-08-12T21:10:55.911Z,12.80
2022-08-12T21:13:27.330Z,8.20
2022-08-12T21:16:00.170Z,12.20
2022-08-12T21:18:31.784Z,12.20
2022-08-12T21:21:02.172Z,13.60
2022-08-12T21:23:38.521Z,14.60
2022-08-12T21:26:05.270Z,13.00
2022-08-12T21:28:35.816Z,13.80
2022-08-12T21:32:34.737Z,13.00
2022-08-12T21:33:58.853Z,9.40
2022-08-12T21:36:22.219Z,12.60
2022-08-12T21:38:43.266Z,13.20
2022-08-12T21:41:15.932Z,11.00
2022-08-12T21:43:48.713Z,12.40
2022-08-12T21:46:34.629Z,10.40
2022-08-12T21:48:56.823Z,11.40
2022-08-12T21:51:24.080Z,13.80
2022-08-12T21:54:07.307Z,11.20
2022-08-12T21:56:34.723Z,10.80
2022-08-12T21:59:00.097Z,12.20
2022-08-12T22:01:30.564Z,9.40
2022-08-12T22:04:11.612Z,12.40
2022-08-12T22:06:43.954Z,11.80
2022-08-12T22:09:09.018Z,12.00
2022-08-12T22:11:43.740Z,12.60
2022-08-12T22:14:21.714Z,13.20
2022-08-12T22:16:46.752Z,12.00
2022-08-12T22:19:17.744Z,13.80
2022-08-12T22:21:53.271Z,12.00
2022-08-12T22:24:27.168Z,13.80
2022-08-12T22:26:58.888Z,13.20
2022-08-12T22:29:29.244Z,13.60
2022-08-12T22:31:59.960Z,13.60
2022-08-12T22:34:33.308Z,12.20
2022-08-12T22:37:02.775Z,13.60
2022-08-12T22:39:33.552Z,11.80
2022-08-12T22:42:05.972Z,12.00
2022-08-12T22:44:54.224Z,10.60
2022-08-12T22:47:08.850Z,12.80
2022-08-12T22:49:53.112Z,14.00
2022-08-12T22:52:11.379Z,11.40
2022-08-12T22:55:00.161Z,13.60
2022-08-12T22:57:14.497Z,14.60
2022-08-12T22:59:55.829Z,13.20
2022-08-12T23:02:17.119Z,12.40
2022-08-12T23:04:49.665Z,13.40
2022-08-12T23:07:20.357Z,11.60
2022-08-12T23:09:53.713Z,12.20
2022-08-12T23:12:25.146Z,12.80
2022-08-12T23:14:55.602Z,11.40
2022-08-12T23:17:41.048Z,13.00
2022-08-12T23:19:59.718Z,8.20
2022-08-12T23:22:36.221Z,10.00
2022-08-12T23:25:03.985Z,11.80
2022-08-12T23:27:44.231Z,14.60
2022-08-12T23:30:18.401Z,12.80
2022-08-12T23:32:40.152Z,12.80
2022-08-12T23:35:10.821Z,13.20
2022-08-12T23:37:47.609Z,12.60
2022-08-12T23:40:17.951Z,11.60
2022-08-12T23:42:47.742Z,12.00
2022-08-12T23:45:20.285Z,11.20
2022-08-12T23:47:50.365Z,10.80
2022-08-12T23:50:22.418Z,12.00
2022-08-12T23:52:54.386Z,13.40
2022-08-12T23:55:29.058Z,14.20
2022-08-12T23:58:21.165Z,12.80
